Time;durP1;ratioP1;P1;durP2;ratioP2;P2;SDS_P1;SDS_P2;PMS_P1;PMS_P2;Temp;Humidity;BMP_temperature;BMP_pressure;BME280_temperature;BME280_humidity;BME280_pressure;Samples;Min_cycle;Max_cycle;Signal;HPM_P1;HPM_P2
2022/06/11 00:01:46;;;;;;;8.77;7.10;;;15.10;99.90;;;;;;5076752;28;20349;-56
2022/06/11 00:04:20;;;;;;;16.17;7.35;;;15.20;99.90;;;;;;5074870;28;20032;-57
2022/06/11 00:06:51;;;;;;;10.80;7.32;;;15.10;99.90;;;;;;5074911;28;20025;-56
2022/06/11 00:09:19;;;;;;;11.32;6.80;;;15.10;99.90;;;;;;5084254;28;20028;-56
2022/06/11 00:11:45;;;;;;;8.23;6.45;;;15.20;99.90;;;;;;5094867;28;20036;-57
2022/06/11 00:14:11;;;;;;;7.18;6.47;;;15.20;99.90;;;;;;5093298;28;20027;-56
2022/06/11 00:16:37;;;;;;;9.15;7.32;;;15.10;99.90;;;;;;5094885;28;20486;-57
2022/06/11 00:19:06;;;;;;;14.95;7.57;;;15.00;99.90;;;;;;5082542;28;20157;-57
2022/06/11 00:21:35;;;;;;;7.88;6.78;;;15.00;99.90;;;;;;5075911;28;20104;-56
2022/06/11 00:24:02;;;;;;;9.98;7.60;;;15.10;99.90;;;;;;5074452;28;20372;-57
2022/06/11 00:26:28;;;;;;;14.55;7.63;;;15.00;99.90;;;;;;5074400;28;20028;-56
2022/06/11 00:28:53;;;;;;;12.68;8.13;;;15.00;99.90;;;;;;5075445;28;20017;-57
2022/06/11 00:31:20;;;;;;;15.07;7.70;;;14.90;99.90;;;;;;5076011;28;20036;-57
2022/06/11 00:33:46;;;;;;;12.15;6.65;;;14.90;99.90;;;;;;5074448;28;20033;-54
2022/06/11 00:36:12;;;;;;;8.25;6.00;;;15.00;99.90;;;;;;5075381;28;20036;-56
2022/06/11 00:38:39;;;;;;;12.45;6.53;;;15.00;99.90;;;;;;5093361;28;20382;-56
2022/06/11 00:41:06;;;;;;;13.98;6.22;;;15.00;99.90;;;;;;5075318;28;20059;-55
2022/06/11 00:43:32;;;;;;;7.85;7.13;;;15.00;99.90;;;;;;5106565;28;20028;-57
2022/06/11 00:46:35;;;;;;;11.05;6.30;;;15.00;99.90;;;;;;5074059;28;20039;-56
2022/06/11 00:49:04;;;;;;;8.85;6.70;;;15.00;99.90;;;;;;5074856;28;20126;-56
2022/06/11 00:51:31;;;;;;;14.52;7.43;;;14.80;99.90;;;;;;5078127;28;20379;-56
2022/06/11 00:54:00;;;;;;;13.13;6.63;;;14.90;99.90;;;;;;5074336;28;20021;-56
2022/06/11 00:56:35;;;;;;;9.75;7.03;;;14.80;99.90;;;;;;5072564;28;20035;-57
2022/06/11 00:59:04;;;;;;;11.50;7.35;;;14.80;99.90;;;;;;5073923;28;20067;-56
2022/06/11 01:01:31;;;;;;;11.65;7.28;;;14.70;99.90;;;;;;5075122;28;20446;-56
2022/06/11 01:03:59;;;;;;;12.30;6.85;;;14.80;99.90;;;;;;5084931;28;20125;-56
2022/06/11 01:06:31;;;;;;;13.00;7.03;;;14.70;99.90;;;;;;5073812;28;20448;-56
2022/06/11 01:08:59;;;;;;;21.42;6.78;;;14.70;99.90;;;;;;5073873;28;20021;-57
2022/06/11 01:11:37;;;;;;;11.27;7.35;;;14.70;99.90;;;;;;5073892;28;20032;-56
2022/06/11 01:14:50;;;;;;;14.52;6.97;;;14.70;99.90;;;;;;5077831;28;20486;-57
2022/06/11 01:17:18;;;;;;;7.30;6.05;;;14.80;99.90;;;;;;5069010;28;20451;-57
2022/06/11 01:20:05;;;;;;;14.93;6.00;;;14.80;99.90;;;;;;5070695;28;20364;-56
2022/06/11 01:22:49;;;;;;;10.98;6.63;;;14.80;99.90;;;;;;5080536;28;20047;-57
2022/06/11 01:25:28;;;;;;;10.15;6.43;;;14.70;99.90;;;;;;5073323;28;20032;-55
2022/06/11 01:28:06;;;;;;;7.75;6.85;;;14.70;99.90;;;;;;5073562;28;20021;-57
2022/06/11 01:30:41;;;;;;;9.48;6.85;;;14.70;99.90;;;;;;5074666;28;20612;-57
2022/06/11 01:33:29;;;;;;;7.07;6.38;;;14.70;99.90;;;;;;5072006;28;20026;-57
2022/06/11 01:36:13;;;;;;;10.70;7.03;;;14.60;99.90;;;;;;5081074;28;20371;-57
2022/06/11 01:38:44;;;;;;;8.18;6.57;;;14.60;99.90;;;;;;5091913;28;20024;-57
2022/06/11 01:41:26;;;;;;;15.55;7.18;;;14.60;99.90;;;;;;5092865;28;20422;-56
2022/06/11 01:43:58;;;;;;;14.82;7.57;;;14.50;99.90;;;;;;5093447;28;20650;-56
2022/06/11 01:46:31;;;;;;;10.35;7.15;;;14.50;99.90;;;;;;5090339;28;20371;-56
2022/06/11 01:49:05;;;;;;;7.85;6.90;;;14.50;99.90;;;;;;5072715;28;20012;-57
2022/06/11 01:51:56;;;;;;;12.07;6.60;;;14.50;99.90;;;;;;5076564;28;20379;-57
2022/06/11 01:54:43;;;;;;;14.80;6.15;;;14.50;99.90;;;;;;5085474;28;20040;-55
2022/06/11 01:57:18;;;;;;;11.70;7.25;;;14.60;99.90;;;;;;5092605;28;20036;-57
2022/06/11 02:00:04;;;;;;;10.45;7.00;;;14.50;99.90;;;;;;5090742;28;20390;-57
2022/06/11 02:02:47;;;;;;;8.63;6.88;;;14.50;99.90;;;;;;5092458;28;20032;-56
2022/06/11 02:05:21;;;;;;;13.38;7.32;;;14.50;99.90;;;;;;5092482;28;20020;-56
2022/06/11 02:07:47;;;;;;;;;;;14.40;99.90;;;;;;5079120;28;20028;-57
2022/06/11 02:10:26;;;;;;;7.97;6.45;;;14.40;99.90;;;;;;5071979;28;20064;-57
2022/06/11 02:12:58;;;;;;;17.27;8.27;;;14.40;99.90;;;;;;5072699;28;20433;-56
2022/06/11 02:15:32;;;;;;;15.32;8.30;;;14.40;99.90;;;;;;5074330;28;20028;-56
2022/06/11 02:18:03;;;;;;;9.25;7.65;;;14.30;99.90;;;;;;5072340;28;20028;-56
2022/06/11 02:21:04;;;;;;;10.35;7.93;;;14.30;99.90;;;;;;5081707;28;20032;-57
2022/06/11 02:23:38;;;;;;;8.77;7.95;;;14.30;99.90;;;;;;5077300;28;20050;-57
2022/06/11 02:26:29;;;;;;;12.65;7.55;;;14.40;99.90;;;;;;5085508;28;20028;-57
2022/06/11 02:28:57;;;;;;;15.15;7.57;;;14.30;99.90;;;;;;5070163;28;20092;-57
2022/06/11 02:31:28;;;;;;;13.30;6.82;;;14.30;99.90;;;;;;5073281;28;20055;-57
2022/06/11 02:33:54;;;;;;;12.13;7.95;;;14.40;99.90;;;;;;5072148;28;20012;-57
2022/06/11 02:36:27;;;;;;;10.40;8.02;;;14.40;99.90;;;;;;5104103;28;20480;-57
2022/06/11 02:38:53;;;;;;;16.60;7.07;;;14.40;99.90;;;;;;5072112;28;20027;-58
2022/06/11 02:41:24;;;;;;;10.02;7.57;;;14.30;99.90;;;;;;5071897;28;20028;-56
2022/06/11 02:43:50;;;;;;;11.15;7.68;;;14.30;99.90;;;;;;5104485;28;20056;-56
2022/06/11 02:49:00;;;;;;;11.07;6.78;;;14.30;99.90;;;;;;5071518;28;20031;-57
2022/06/11 02:51:28;;;;;;;7.45;6.45;;;14.40;99.90;;;;;;5072791;28;20021;-57
2022/06/11 02:53:54;;;;;;;7.32;6.40;;;14.40;99.90;;;;;;5073038;28;20558;-56
2022/06/11 02:56:20;;;;;;;7.75;6.95;;;14.40;99.90;;;;;;5090664;28;20024;-58
2022/06/11 02:58:47;;;;;;;7.28;5.85;;;14.40;99.90;;;;;;5085778;28;20525;-57
2022/06/11 03:01:12;;;;;;;9.07;6.55;;;14.40;99.90;;;;;;5071743;28;20039;-57
2022/06/11 03:03:38;;;;;;;7.90;6.72;;;14.30;99.90;;;;;;5071885;28;20028;-55
2022/06/11 03:06:04;;;;;;;7.50;6.75;;;14.30;99.90;;;;;;5070234;28;20035;-57
2022/06/11 03:08:32;;;;;;;8.95;6.95;;;14.30;99.90;;;;;;5073326;28;20372;-56
2022/06/11 03:10:58;;;;;;;11.65;7.70;;;14.20;99.90;;;;;;5085189;28;20079;-57
2022/06/11 03:13:26;;;;;;;9.73;6.35;;;14.30;99.90;;;;;;5071764;28;20043;-55
2022/06/11 03:15:52;;;;;;;11.38;7.00;;;14.30;99.90;;;;;;5073486;28;20039;-56
2022/06/11 03:18:18;;;;;;;10.27;7.05;;;14.30;99.90;;;;;;5077051;28;20032;-57
2022/06/11 03:20:44;;;;;;;18.52;7.55;;;14.30;99.90;;;;;;5089657;28;20020;-57
2022/06/11 03:23:38;;;;;;;10.23;7.85;;;14.20;99.90;;;;;;5078011;28;20033;-57
2022/06/11 03:26:04;;;;;;;9.73;6.88;;;14.20;99.90;;;;;;5071931;28;20055;-57
2022/06/11 03:28:30;;;;;;;14.00;7.20;;;14.20;99.90;;;;;;5074891;28;20039;-57
2022/06/11 03:30:56;;;;;;;9.93;6.82;;;14.30;99.90;;;;;;5078691;28;20429;-57
2022/06/11 03:36:45;;;;;;;10.20;6.38;;;14.30;99.90;;;;;;5089895;28;20409;-56
2022/06/11 03:39:12;;;;;;;16.13;7.10;;;14.30;99.90;;;;;;5091347;28;20114;-55
2022/06/11 03:41:39;;;;;;;9.88;7.93;;;14.30;99.90;;;;;;5091221;28;20119;-56
2022/06/11 03:44:04;;;;;;;10.55;7.13;;;14.30;99.90;;;;;;5091135;28;20017;-53
2022/06/11 03:46:30;;;;;;;9.00;6.60;;;14.40;99.90;;;;;;5091309;28;20039;-56
2022/06/11 03:48:57;;;;;;;10.73;6.05;;;14.50;99.90;;;;;;5090009;28;20020;-56
2022/06/11 03:51:23;;;;;;;9.82;7.00;;;14.50;99.90;;;;;;5089927;28;20487;-57
2022/06/11 03:53:49;;;;;;;9.00;7.63;;;14.50;99.90;;;;;;5087347;28;20028;-56
2022/06/11 03:56:16;;;;;;;9.00;7.00;;;14.50;99.90;;;;;;5071186;28;20690;-56
2022/06/11 03:58:43;;;;;;;10.05;6.95;;;14.40;99.90;;;;;;5084849;28;20025;-56
2022/06/11 04:01:16;;;;;;;8.05;6.55;;;14.50;99.90;;;;;;5070054;28;20035;-55
2022/06/11 04:03:48;;;;;;;10.90;7.22;;;14.50;99.90;;;;;;5088933;28;20121;-56
2022/06/11 04:06:16;;;;;;;12.60;7.10;;;14.50;99.90;;;;;;5090736;28;20028;-57
2022/06/11 04:08:42;;;;;;;12.35;6.95;;;14.50;99.90;;;;;;5090995;28;20027;-57
2022/06/11 04:11:09;;;;;;;8.05;7.03;;;14.50;99.90;;;;;;5090695;28;20052;-56
2022/06/11 04:13:37;;;;;;;12.25;6.78;;;14.50;99.90;;;;;;5090623;28;20541;-57
2022/06/11 04:16:03;;;;;;;10.77;5.93;;;14.60;99.90;;;;;;5089414;28;20111;-55
2022/06/11 04:18:43;;;;;;;8.15;5.72;;;14.60;99.90;;;;;;5091056;28;20035;-57
2022/06/11 04:21:12;;;;;;;13.00;7.13;;;14.60;99.90;;;;;;5089181;28;20059;-57
2022/06/11 04:23:40;;;;;;;10.18;7.07;;;14.70;99.90;;;;;;5091064;28;20032;-56
2022/06/11 04:26:10;;;;;;;8.65;5.57;;;14.70;99.90;;;;;;5090605;28;20081;-56
2022/06/11 04:28:37;;;;;;;7.47;6.65;;;14.80;99.90;;;;;;5081367;28;20020;-56
2022/06/11 04:31:05;;;;;;;10.30;5.38;;;14.90;99.90;;;;;;5090775;28;20024;-56
2022/06/11 04:33:30;;;;;;;9.35;5.97;;;14.90;99.90;;;;;;5094717;28;20099;-57
2022/06/11 04:35:56;;;;;;;7.38;5.43;;;15.00;99.90;;;;;;5094054;28;20515;-57
2022/06/11 04:38:22;;;;;;;7.47;5.32;;;15.00;99.90;;;;;;5094514;28;20024;-56
2022/06/11 04:40:48;;;;;;;8.27;5.43;;;15.00;99.90;;;;;;5094198;28;20123;-56
2022/06/11 04:43:15;;;;;;;8.15;5.53;;;15.00;99.90;;;;;;5094545;28;20107;-57
2022/06/11 04:45:41;;;;;;;5.90;5.30;;;15.10;99.90;;;;;;5083461;28;20039;-56
2022/06/11 04:48:06;;;;;;;7.00;5.65;;;15.20;99.90;;;;;;5073952;28;20032;-56
2022/06/11 04:50:33;;;;;;;6.82;5.07;;;15.30;99.90;;;;;;5075268;28;20074;-57
2022/06/11 04:52:59;;;;;;;6.65;5.03;;;15.30;99.90;;;;;;5073997;28;20028;-56
2022/06/11 04:55:25;;;;;;;7.25;5.38;;;15.40;99.90;;;;;;5078317;28;20031;-56
2022/06/11 04:57:51;;;;;;;8.98;5.53;;;15.40;99.90;;;;;;5090433;28;20095;-56
2022/06/11 05:00:20;;;;;;;7.82;4.57;;;15.40;99.90;;;;;;5091232;28;20035;-55
2022/06/11 05:02:47;;;;;;;10.77;4.88;;;15.50;99.90;;;;;;5093953;28;20039;-56
2022/06/11 05:05:13;;;;;;;5.32;4.85;;;15.60;99.90;;;;;;5093563;28;20051;-55
2022/06/11 05:07:40;;;;;;;6.68;4.85;;;15.60;99.90;;;;;;5094202;28;20025;-56
2022/06/11 05:10:07;;;;;;;6.15;5.55;;;15.60;99.90;;;;;;5093778;28;20023;-54
2022/06/11 05:12:33;;;;;;;13.52;5.03;;;15.60;99.90;;;;;;5093662;28;20035;-54
2022/06/11 05:14:59;;;;;;;8.10;5.05;;;15.60;99.90;;;;;;5091938;28;20020;-55
2022/06/11 05:17:24;;;;;;;5.95;5.25;;;15.60;99.90;;;;;;5093607;28;20035;-57
2022/06/11 05:19:50;;;;;;;9.40;4.93;;;15.70;99.90;;;;;;5092269;28;20404;-55
2022/06/11 05:22:16;;;;;;;7.63;4.28;;;15.70;99.90;;;;;;5093313;28;20066;-56
2022/06/11 05:25:10;;;;;;;8.73;5.10;;;15.80;99.90;;;;;;5090448;28;20024;-57
2022/06/11 05:27:38;;;;;;;11.65;5.10;;;15.90;99.90;;;;;;5073852;28;20024;-56
2022/06/11 05:30:20;;;;;;;7.22;5.40;;;15.90;99.90;;;;;;5074631;28;20032;-57
2022/06/11 05:32:46;;;;;;;6.43;4.55;;;15.90;99.90;;;;;;5073447;28;20036;-56
2022/06/11 05:35:19;;;;;;;9.43;5.47;;;16.10;99.90;;;;;;5077621;28;20536;-55
2022/06/11 05:37:46;;;;;;;10.93;5.55;;;16.20;99.90;;;;;;5093053;28;20463;-55
2022/06/11 05:40:16;;;;;;;9.65;5.43;;;16.20;99.90;;;;;;5092889;28;20044;-56
2022/06/11 05:42:47;;;;;;;10.85;5.80;;;16.30;99.90;;;;;;5080945;28;20097;-56
2022/06/11 05:45:30;;;;;;;10.18;6.32;;;16.30;99.90;;;;;;5077748;28;20116;-56
2022/06/11 05:47:57;;;;;;;8.45;5.80;;;16.40;99.90;;;;;;5093109;28;20027;-56
2022/06/11 05:50:29;;;;;;;6.35;5.75;;;16.50;99.90;;;;;;5091557;28;20035;-57
2022/06/11 05:52:58;;;;;;;6.57;5.95;;;16.50;99.90;;;;;;5093090;28;20024;-56
2022/06/11 05:55:27;;;;;;;14.70;7.03;;;16.50;99.90;;;;;;5089356;28;20032;-57
2022/06/11 05:57:55;;;;;;;6.93;6.20;;;16.50;99.90;;;;;;5072757;28;20122;-56
2022/06/11 06:00:23;;;;;;;7.68;5.55;;;16.70;99.90;;;;;;5089127;28;20528;-55
2022/06/11 06:02:49;;;;;;;11.98;5.55;;;16.90;99.90;;;;;;5072674;28;20032;-55
2022/06/11 06:05:19;;;;;;;7.65;5.43;;;17.00;99.90;;;;;;5088239;28;20617;-54
2022/06/11 06:07:45;;;;;;;8.38;5.70;;;17.10;99.90;;;;;;5084936;28;20359;-54
2022/06/11 06:10:11;;;;;;;8.77;5.57;;;17.20;99.90;;;;;;5076363;28;20016;-56
2022/06/11 06:12:37;;;;;;;11.48;5.70;;;17.30;99.90;;;;;;5091170;28;20052;-55
2022/06/11 06:15:15;;;;;;;9.05;5.05;;;17.40;99.90;;;;;;5091193;28;20378;-56
2022/06/11 06:17:41;;;;;;;8.43;4.97;;;17.50;99.90;;;;;;5085766;28;20103;-56
2022/06/11 06:20:11;;;;;;;6.55;5.28;;;17.50;99.90;;;;;;5073404;28;20028;-57
2022/06/11 06:22:37;;;;;;;7.60;5.05;;;17.80;99.90;;;;;;5081414;28;20036;-55
2022/06/11 06:25:03;;;;;;;9.25;5.53;;;17.80;99.90;;;;;;5091910;28;20085;-54
2022/06/11 06:27:29;;;;;;;11.50;4.97;;;18.00;99.90;;;;;;5092244;28;20016;-55
2022/06/11 06:29:55;;;;;;;5.45;4.82;;;18.00;99.90;;;;;;5078325;28;20031;-56
2022/06/11 06:32:21;;;;;;;5.72;4.82;;;18.20;99.90;;;;;;5088442;28;20081;-55
2022/06/11 06:34:47;;;;;;;10.55;4.70;;;18.20;99.90;;;;;;5104242;28;20056;-57
2022/06/11 06:37:12;;;;;;;8.52;4.72;;;18.20;99.90;;;;;;5072099;28;20507;-54
2022/06/11 06:39:38;;;;;;;5.13;4.18;;;18.30;99.90;;;;;;5074418;28;20032;-57
2022/06/11 06:42:06;;;;;;;5.82;3.55;;;18.30;99.90;;;;;;5092099;28;20059;-52
2022/06/11 06:44:32;;;;;;;6.72;4.15;;;18.40;99.90;;;;;;5091985;28;20021;-53
2022/06/11 06:46:57;;;;;;;6.65;4.80;;;18.40;99.90;;;;;;5090866;28;20177;-57
2022/06/11 06:49:23;;;;;;;6.07;4.40;;;18.50;99.90;;;;;;5090764;28;20038;-55
2022/06/11 06:51:49;;;;;;;7.65;4.15;;;18.60;99.90;;;;;;5090355;28;20112;-54
2022/06/11 06:54:15;;;;;;;6.68;5.10;;;18.70;99.90;;;;;;5090380;28;20478;-54
2022/06/11 06:56:40;;;;;;;5.53;3.95;;;18.70;99.90;;;;;;5077283;28;20040;-56
2022/06/11 06:59:07;;;;;;;5.32;4.15;;;18.80;99.90;;;;;;5078799;28;20119;-56
2022/06/11 07:01:33;;;;;;;7.47;4.68;;;19.00;99.90;;;;;;5091697;28;20020;-55
2022/06/11 07:03:59;;;;;;;7.82;4.40;;;19.20;99.90;;;;;;5083163;28;20038;-57
2022/06/11 07:06:26;;;;;;;6.72;5.03;;;19.50;99.90;;;;;;5070927;28;20108;-56
2022/06/11 07:08:53;;;;;;;6.25;3.97;;;19.60;99.90;;;;;;5071160;28;20024;-53
2022/06/11 07:11:20;;;;;;;10.95;4.50;;;19.70;99.90;;;;;;5072657;28;20028;-53
2022/06/11 07:13:47;;;;;;;8.15;4.80;;;19.60;99.90;;;;;;5071718;28;20035;-56
2022/06/11 07:16:19;;;;;;;7.45;4.85;;;19.50;99.90;;;;;;5072352;28;20697;-56
2022/06/11 07:18:49;;;;;;;8.30;4.65;;;19.20;99.90;;;;;;5071752;28;20029;-56
2022/06/11 07:21:22;;;;;;;6.78;4.97;;;19.20;99.90;;;;;;5082658;28;20028;-55
2022/06/11 07:23:57;;;;;;;;;;;18.90;99.90;;;;;;5092214;28;20056;-53
2022/06/11 07:26:28;;;;;;;6.57;4.80;;;19.00;99.90;;;;;;5091389;28;19908;-54
2022/06/11 07:29:00;;;;;;;5.13;4.63;;;18.80;99.90;;;;;;5091619;28;20024;-56
2022/06/11 07:31:28;;;;;;;8.00;4.68;;;18.70;99.90;;;;;;5088504;28;20024;-53
2022/06/11 07:33:54;;;;;;;6.63;3.92;;;18.80;99.90;;;;;;5091198;28;20028;-54
2022/06/11 07:36:20;;;;;;;6.85;4.53;;;19.00;99.90;;;;;;5073407;28;20085;-55
2022/06/11 07:38:46;;;;;;;7.15;4.60;;;19.20;99.90;;;;;;5071391;28;20125;-57
2022/06/11 07:41:20;;;;;;;6.80;4.72;;;19.30;99.90;;;;;;5083969;28;20377;-54
2022/06/11 07:43:46;;;;;;;4.20;3.70;;;19.30;99.90;;;;;;5090931;28;20028;-56
2022/06/11 07:46:12;;;;;;;4.75;3.45;;;19.60;99.90;;;;;;5078146;28;20025;-55
2022/06/11 07:48:38;;;;;;;7.78;4.60;;;19.70;99.90;;;;;;5071414;28;20051;-55
2022/06/11 07:51:04;;;;;;;9.68;5.30;;;19.70;99.90;;;;;;5079710;28;20091;-56
2022/06/11 07:53:30;;;;;;;9.40;3.83;;;19.60;99.90;;;;;;5090222;28;20020;-55
2022/06/11 07:55:56;;;;;;;4.45;4.03;;;19.90;99.90;;;;;;5083980;28;20036;-56
2022/06/11 07:58:28;;;;;;;5.63;4.15;;;20.00;99.90;;;;;;5071054;28;20008;-56
2022/06/11 08:00:54;;;;;;;3.90;3.45;;;20.20;99.90;;;;;;5080816;28;20467;-55
2022/06/11 08:03:21;;;;;;;6.28;3.92;;;20.30;99.90;;;;;;5090897;28;20375;-55
2022/06/11 08:05:47;;;;;;;6.18;3.60;;;20.30;99.90;;;;;;5086653;28;20054;-55
2022/06/11 08:08:13;;;;;;;4.25;3.83;;;20.30;99.90;;;;;;5074728;28;20396;-56
2022/06/11 08:10:41;;;;;;;8.55;4.07;;;20.50;99.90;;;;;;5075948;28;20039;-53
2022/06/11 08:13:08;;;;;;;3.80;3.40;;;20.70;99.90;;;;;;5107259;28;20029;-53
2022/06/11 08:15:35;;;;;;;5.18;3.83;;;20.80;99.90;;;;;;5076016;28;20089;-56
2022/06/11 08:18:01;;;;;;;12.90;3.22;;;21.00;99.90;;;;;;5086474;28;20031;-57
2022/06/11 08:20:29;;;;;;;8.48;4.28;;;20.90;99.90;;;;;;5092952;28;20051;-55
2022/06/11 08:23:51;;;;;;;4.38;3.33;;;21.20;99.90;;;;;;5095050;28;20044;-56
2022/06/11 08:26:16;;;;;;;4.63;3.33;;;21.10;99.90;;;;;;5094337;28;20081;-57
2022/06/11 08:28:42;;;;;;;8.90;3.47;;;21.70;99.90;;;;;;5094626;28;20032;-56
2022/06/11 08:31:08;;;;;;;5.40;3.70;;;22.10;99.90;;;;;;5081661;28;20028;-56
2022/06/11 08:33:34;;;;;;;4.53;3.28;;;22.20;99.90;;;;;;5074513;28;20456;-56
2022/06/11 08:36:00;;;;;;;7.72;3.03;;;21.90;98.90;;;;;;5074364;28;20025;-55
2022/06/11 08:38:25;;;;;;;4.40;2.92;;;22.20;99.90;;;;;;5090316;28;20100;-57
2022/06/11 08:40:54;;;;;;;4.90;3.30;;;22.40;99.80;;;;;;5094074;28;20495;-55
2022/06/11 08:43:31;;;;;;;10.38;3.38;;;22.40;98.30;;;;;;5094487;28;20470;-57
2022/06/11 08:45:56;;;;;;;6.13;3.67;;;22.40;98.60;;;;;;5092919;28;20028;-54
2022/06/11 08:48:45;;;;;;;6.65;3.50;;;22.60;98.30;;;;;;5093746;28;20072;-58
2022/06/11 08:51:39;;;;;;;3.00;2.53;;;22.70;96.90;;;;;;5072353;28;20085;-57
2022/06/11 08:54:08;;;;;;;4.80;2.55;;;22.90;97.20;;;;;;5092630;28;20100;-57
2022/06/11 08:56:49;;;;;;;6.05;2.72;;;23.00;96.60;;;;;;5085873;28;20471;-58
2022/06/11 08:59:40;;;;;;;5.40;2.85;;;22.80;98.10;;;;;;5073602;28;20021;-58
2022/06/11 09:02:33;;;;;;;4.20;3.00;;;22.80;96.90;;;;;;5073195;28;20108;-58
2022/06/11 09:05:26;;;;;;;8.25;2.70;;;22.70;96.60;;;;;;5072192;28;20451;-65
2022/06/11 09:08:18;;;;;;;5.23;2.67;;;23.00;96.80;;;;;;5077383;28;20653;-59
2022/06/11 09:11:21;;;;;;;4.25;2.97;;;22.60;96.30;;;;;;5082534;28;20025;-59
2022/06/11 09:14:11;;;;;;;4.10;2.95;;;22.90;95.70;;;;;;5074540;28;20107;-59
2022/06/11 09:16:49;;;;;;;22.65;11.13;;;23.70;97.40;;;;;;5092138;28;20383;-59
2022/06/11 09:19:47;;;;;;;3.95;2.53;;;24.30;94.00;;;;;;5091694;28;20028;-58
2022/06/11 09:22:56;;;;;;;3.47;1.80;;;24.10;86.30;;;;;;5077946;28;20020;-59
2022/06/11 09:25:43;;;;;;;5.78;1.83;;;24.90;87.50;;;;;;5061573;28;20033;-56
2022/06/11 09:28:40;;;;;;;6.15;2.15;;;25.10;90.00;;;;;;5050800;28;20036;-56
2022/06/11 09:31:09;;;;;;;2.45;1.77;;;25.30;83.00;;;;;;5081008;28;20036;-59
2022/06/11 09:34:04;;;;;;;4.05;1.90;;;25.20;80.90;;;;;;5084984;28;20074;-56
2022/06/11 09:36:36;;;;;;;7.72;1.70;;;24.80;81.20;;;;;;5071205;28;20036;-57
2022/06/11 09:39:32;;;;;;;3.78;1.75;;;24.80;83.10;;;;;;5073980;28;20471;-56
2022/06/11 09:42:06;;;;;;;3.38;1.38;;;24.80;84.40;;;;;;5073185;28;20034;-56
2022/06/11 09:44:54;;;;;;;2.10;1.63;;;24.90;80.00;;;;;;5075149;28;20029;-57
2022/06/11 09:47:41;;;;;;;5.07;2.25;;;25.40;82.40;;;;;;5084280;28;20024;-57
2022/06/11 09:50:16;;;;;;;11.10;2.70;;;25.50;83.80;;;;;;5085158;28;20503;-57
2022/06/11 09:52:48;;;;;;;5.38;2.50;;;25.10;78.90;;;;;;5076857;28;20032;-60
2022/06/11 09:55:26;;;;;;;3.67;1.93;;;24.90;81.40;;;;;;5076574;28;20043;-56
2022/06/11 09:58:01;;;;;;;1.88;1.45;;;24.20;75.50;;;;;;5079687;28;20128;-54
2022/06/11 10:00:34;;;;;;;4.47;1.95;;;24.00;82.00;;;;;;5072803;28;20520;-57
2022/06/11 10:03:56;;;;;;;2.67;1.30;;;23.90;75.70;;;;;;5082667;28;20037;-56
2022/06/11 10:06:47;;;;;;;3.45;1.42;;;24.80;81.80;;;;;;5054104;28;20044;-56
2022/06/11 10:09:18;;;;;;;5.32;1.45;;;25.20;73.80;;;;;;5066439;28;20086;-57
2022/06/11 10:14:54;;;;;;;3.67;1.25;;;26.00;73.60;;;;;;5079976;28;20059;-56
2022/06/11 10:17:46;;;;;;;3.58;1.33;;;26.50;71.00;;;;;;5082246;28;20036;-55
2022/06/11 10:20:22;;;;;;;6.05;2.55;;;27.00;69.90;;;;;;5099942;28;20028;-56
2022/06/11 10:23:25;;;;;;;1.73;1.38;;;26.80;68.00;;;;;;5103112;28;20039;-52
2022/06/11 10:25:53;;;;;;;2.78;1.20;;;25.90;63.40;;;;;;5081854;28;20047;-55
2022/06/11 10:28:22;;;;;;;4.85;1.50;;;25.60;64.50;;;;;;5083068;28;20040;-56
2022/06/11 10:30:59;;;;;;;3.17;1.50;;;25.40;69.60;;;;;;5081835;28;20371;-56
2022/06/11 10:33:57;;;;;;;3.35;1.65;;;24.70;68.90;;;;;;5081505;28;20028;-56
2022/06/11 10:36:46;;;;;;;2.22;1.40;;;24.60;73.70;;;;;;5099583;28;20398;-55
2022/06/11 10:39:16;;;;;;;2.85;1.55;;;24.10;74.70;;;;;;5079226;28;22428;-58
2022/06/11 10:42:16;;;;;;;2.15;1.40;;;24.50;74.80;;;;;;5076432;28;20086;-56
2022/06/11 10:44:50;;;;;;;4.22;1.60;;;24.90;71.40;;;;;;5070602;28;20503;-57
2022/06/11 10:47:22;;;;;;;4.93;1.60;;;25.40;66.60;;;;;;5071207;28;20503;-57
2022/06/11 10:49:58;;;;;;;1.77;1.30;;;25.50;69.60;;;;;;5068452;28;20032;-56
2022/06/11 10:53:10;;;;;;;4.55;1.50;;;25.80;65.00;;;;;;5064981;28;20039;-57
2022/06/11 10:56:31;;;;;;;3.80;1.50;;;26.40;68.20;;;;;;5041284;28;20032;-57
2022/06/11 10:59:08;;;;;;;5.60;1.85;;;26.50;67.30;;;;;;5027778;28;20590;-54
2022/06/11 11:01:39;;;;;;;3.45;1.55;;;26.70;63.60;;;;;;5071578;28;20044;-55
2022/06/11 11:04:05;;;;;;;2.75;1.23;;;26.60;62.40;;;;;;5080008;28;20039;-55
2022/06/11 11:06:36;;;;;;;2.03;1.52;;;26.90;62.80;;;;;;5079760;28;20047;-55
2022/06/11 11:09:09;;;;;;;3.10;1.40;;;26.80;64.80;;;;;;5070717;28;20032;-55
2022/06/11 11:11:46;;;;;;;;;;;26.40;64.00;;;;;;5081764;28;20534;-57
2022/06/11 11:14:16;;;;;;;3.63;1.40;;;26.80;67.70;;;;;;5081726;28;19908;-55
2022/06/11 11:16:47;;;;;;;1.48;1.13;;;26.70;66.20;;;;;;5082307;28;20115;-57
2022/06/11 11:19:28;;;;;;;6.00;1.40;;;27.10;62.40;;;;;;5080077;28;20092;-58
2022/06/11 11:22:04;;;;;;;5.75;1.27;;;26.80;62.80;;;;;;5081733;28;20080;-57
2022/06/11 11:24:32;;;;;;;6.20;1.65;;;27.40;65.70;;;;;;5069910;28;20376;-57
2022/06/11 11:27:13;;;;;;;4.30;1.30;;;27.50;64.60;;;;;;5081818;28;20028;-56
2022/06/11 11:29:56;;;;;;;5.13;1.23;;;27.20;64.20;;;;;;5081079;28;20032;-57
2022/06/11 11:32:30;;;;;;;2.67;2.20;;;26.90;61.00;;;;;;5081264;28;20021;-58
2022/06/11 11:34:55;;;;;;;2.92;1.50;;;27.40;60.90;;;;;;5082519;28;20569;-53
2022/06/11 11:37:21;;;;;;;6.25;1.33;;;27.50;57.10;;;;;;5080898;28;20024;-57
2022/06/11 11:39:51;;;;;;;2.17;1.08;;;27.00;58.40;;;;;;5080456;28;20515;-57
2022/06/11 11:42:22;;;;;;;6.60;1.33;;;27.50;56.50;;;;;;5066720;28;20031;-57
2022/06/11 11:44:50;;;;;;;2.28;1.50;;;27.90;54.30;;;;;;5084917;28;20039;-58
2022/06/11 11:47:38;;;;;;;1.65;1.05;;;28.60;56.50;;;;;;5084637;28;20035;-62
2022/06/11 11:50:13;;;;;;;2.63;1.27;;;28.30;59.10;;;;;;5081509;28;20032;-58
2022/06/11 11:52:45;;;;;;;5.28;1.40;;;27.10;56.10;;;;;;5084372;28;20034;-57
2022/06/11 11:55:24;;;;;;;1.88;1.33;;;26.70;54.40;;;;;;5082290;28;20028;-57
2022/06/11 11:58:03;;;;;;;5.35;1.77;;;26.90;58.20;;;;;;5082326;28;20024;-57
2022/06/11 12:00:49;;;;;;;2.65;1.40;;;27.30;60.20;;;;;;5083738;28;20087;-56
2022/06/11 12:03:26;;;;;;;5.45;1.35;;;26.70;56.40;;;;;;5080796;28;20078;-56
2022/06/11 12:05:55;;;;;;;5.45;1.42;;;27.00;57.30;;;;;;5084447;28;20039;-57
2022/06/11 12:08:46;;;;;;;3.05;1.17;;;27.40;57.10;;;;;;5083250;28;20031;-56
2022/06/11 12:11:38;;;;;;;3.20;1.60;;;27.60;55.10;;;;;;5075786;28;20511;-57
2022/06/11 12:14:15;;;;;;;4.13;2.65;;;27.30;58.40;;;;;;5072907;28;20036;-57
2022/06/11 12:16:50;;;;;;;1.70;1.58;;;27.10;56.10;;;;;;5081181;28;20035;-58
2022/06/11 12:19:19;;;;;;;7.20;1.85;;;27.90;57.90;;;;;;5082327;28;20032;-58
2022/06/11 12:21:49;;;;;;;3.33;1.50;;;28.50;58.30;;;;;;5082881;28;20097;-57
2022/06/11 12:24:20;;;;;;;1.20;1.10;;;29.60;54.80;;;;;;5081819;28;20093;-57
2022/06/11 12:26:51;;;;;;;1.25;1.10;;;30.00;55.30;;;;;;5084303;28;20016;-56
2022/06/11 12:29:40;;;;;;;1.20;0.98;;;30.30;52.50;;;;;;5083764;28;20028;-57
2022/06/11 12:32:26;;;;;;;4.18;0.98;;;30.50;54.10;;;;;;5082528;28;20566;-58
2022/06/11 12:34:53;;;;;;;1.20;0.98;;;29.00;49.20;;;;;;5082157;28;20043;-58
2022/06/11 12:37:44;;;;;;;2.45;1.40;;;29.20;50.00;;;;;;5083102;28;20106;-58
2022/06/11 12:40:42;;;;;;;2.35;1.13;;;29.90;49.10;;;;;;5082894;28;20126;-57
2022/06/11 12:43:43;;;;;;;1.40;1.23;;;29.80;49.20;;;;;;5083142;28;20118;-57
2022/06/11 12:46:41;;;;;;;3.72;1.20;;;28.60;49.50;;;;;;5082752;28;20432;-58
2022/06/11 12:49:22;;;;;;;2.28;1.02;;;29.20;49.60;;;;;;5071225;28;20511;-56
2022/06/11 12:52:11;;;;;;;2.28;1.10;;;30.70;49.00;;;;;;5064177;28;20119;-58
2022/06/11 12:54:55;;;;;;;3.95;1.25;;;32.50;48.60;;;;;;5081902;28;20395;-58
2022/06/11 12:57:39;;;;;;;8.10;1.27;;;31.60;46.00;;;;;;5082591;28;20032;-56
2022/06/11 13:00:20;;;;;;;5.03;1.30;;;32.90;46.60;;;;;;5082577;28;20478;-58
2022/06/11 13:03:00;;;;;;;7.68;1.55;;;33.90;46.40;;;;;;5082915;28;20603;-58
2022/06/11 13:05:44;;;;;;;3.38;1.45;;;33.90;48.00;;;;;;5081343;28;20089;-56
2022/06/11 13:08:42;;;;;;;2.63;1.33;;;34.30;42.60;;;;;;5082803;28;20137;-56
2022/06/11 13:11:28;;;;;;;2.38;1.02;;;33.60;41.00;;;;;;5073465;28;20547;-58
2022/06/11 13:13:54;;;;;;;2.00;0.80;;;32.40;42.30;;;;;;5082278;28;20030;-58
2022/06/11 13:16:41;;;;;;;3.42;1.40;;;33.80;44.50;;;;;;5083014;28;20036;-58
2022/06/11 13:19:30;;;;;;;4.63;0.80;;;33.90;42.90;;;;;;5073760;28;20036;-58
2022/06/11 13:22:41;;;;;;;3.80;0.88;;;33.50;42.10;;;;;;5071423;28;20068;-56
2022/06/11 13:25:28;;;;;;;5.65;1.02;;;33.60;42.00;;;;;;5059111;28;20130;-56
2022/06/11 13:28:02;;;;;;;3.30;1.17;;;33.00;40.90;;;;;;5082925;28;20111;-56
2022/06/11 13:30:42;;;;;;;5.80;0.98;;;32.00;40.30;;;;;;5083015;28;20113;-56